Weather at McCarran International Airport

Public forecast

Using degrees Fahrenheit for public forecast. Weather courtesy of forecast.io.

Current aviation weather report (METAR) for McCarran International Airport

Retrieved 2021/05/14 22:56 UTC (49 minutes ago):

KLAS 142256Z VRB06KT 10SM FEW150 FEW250 36/M06 A2974 RMK AO2 SLP041 T03611056

Aviation forecast (TAF) for McCarran International Airport

Retrieved 2021/05/14 18:22 UTC (5 hours ago):

TAF KLAS 141720Z 1418/1524 10008KT P6SM SKC FM142100 17010G18KT P6SM SKC FM142300 21015G21KT P6SM SKC FM150200 23010G15KT P6SM FEW250